Time;durP1;ratioP1;P1;durP2;ratioP2;P2;SDS_P1;SDS_P2;PMS_P1;PMS_P2;Temp;Humidity;BMP_temperature;BMP_pressure;BME280_temperature;BME280_humidity;BME280_pressure;Samples;Min_cycle;Max_cycle;Signal;HPM_P1;HPM_P2
2021/08/03 00:01:05;;;;;;;23.05;14.40;;;;;;;12.99;89.59;98568.88;261874;1090;23344;-75
2021/08/03 00:07:23;;;;;;;;;;;;;;;;;;;;;
2021/08/03 00:14:19;;;;;;;17.30;13.00;;;;;;;12.90;89.93;98575.31;261792;1093;24525;-76
2021/08/03 00:20:34;;;;;;;17.45;13.10;;;;;;;12.88;89.62;98574.84;261695;1090;22784;-76
2021/08/03 00:27:28;;;;;;;19.27;12.47;;;;;;;12.81;89.77;98584.11;261885;1089;25957;-77
2021/08/03 00:40:10;;;;;;;;;;;;;;;;;;;;;
2021/08/03 00:46:52;;;;;;;18.35;13.45;;;;;;;12.64;89.74;98597.45;261605;1093;26289;-77
2021/08/03 00:53:30;;;;;;;;;;;;;;;;;;;;;
2021/08/03 00:59:48;;;;;;;18.63;14.33;;;;;;;12.59;90.15;98597.58;261825;1090;23465;-76
2021/08/03 01:06:42;;;;;;;18.17;13.40;;;;;;;12.59;90.09;98594.89;261752;1090;22873;-76
2021/08/03 01:13:38;;;;;;;;;;;;;;;;;;;;;
2021/08/03 01:20:43;;;;;;;;;;;;;;;;;;;;;
2021/08/03 01:27:36;;;;;;;18.87;13.93;;;;;;;12.52;89.99;98579.22;261788;1090;22879;-77
2021/08/03 01:34:17;;;;;;;18.20;13.60;;;;;;;12.51;90.10;98574.94;261801;1090;22860;-76
2021/08/03 01:41:16;;;;;;;17.60;12.90;;;;;;;12.49;90.05;98580.62;261708;1090;22873;-77
2021/08/03 02:08:35;;;;;;;18.60;14.35;;;;;;;12.32;90.28;98592.03;261791;1090;22783;-76
2021/08/03 02:15:37;;;;;;;19.75;13.40;;;;;;;12.29;89.92;98595.30;261694;1090;22851;-76
2021/08/03 02:22:26;;;;;;;16.07;12.97;;;;;;;12.30;90.27;98599.58;261828;1090;22785;-76
2021/08/03 02:29:42;;;;;;;;;;;;;;;;;;;;;
2021/08/03 02:36:31;;;;;;;24.05;15.30;;;;;;;12.25;90.32;98610.44;261698;1090;23584;-77
2021/08/03 03:03:03;;;;;;;;;;;;;;;;;;;;;
2021/08/03 03:09:36;;;;;;;18.80;13.40;;;;;;;12.16;91.17;98636.44;261922;1093;22796;-77
2021/08/03 03:30:23;;;;;;;17.90;13.80;;;;;;;12.15;91.02;98640.21;261655;1088;22834;-77
2021/08/03 03:37:09;;;;;;;22.00;14.30;;;;;;;12.15;90.79;98643.67;261909;1093;22940;-77
2021/08/03 03:57:43;;;;;;;;;;;;;;;;;;;;;
2021/08/03 04:03:59;;;;;;;;;;;;;;;;;;;;;
2021/08/03 04:17:21;;;;;;;18.20;14.20;;;;;;;12.88;90.83;98655.48;261563;1093;22795;-76
2021/08/03 04:24:01;;;;;;;;;;;;;;;;;;;;;
2021/08/03 04:31:18;;;;;;;16.63;13.97;;;;;;;13.32;91.99;98670.78;261415;1092;22795;-76
2021/08/03 04:37:27;;;;;;;14.65;13.10;;;;;;;13.63;93.11;98669.20;261877;1090;22937;-75
2021/08/03 04:44:38;;;;;;;20.10;14.13;;;;;;;13.74;90.49;98662.44;261649;1088;22914;-76
2021/08/03 04:51:38;;;;;;;;;;;;;;;;;;;;;
2021/08/03 04:58:43;;;;;;;;;;;;;;;;;;;;;
2021/08/03 05:04:45;;;;;;;;;;;;;;;;;;;;;
2021/08/03 05:10:35;;;;;;;17.70;13.80;;;;;;;14.19;89.80;98675.69;261714;1093;22779;-76
2021/08/03 05:17:37;;;;;;;17.20;13.40;;;;;;;14.26;89.75;98677.14;261907;1093;26321;-79
2021/08/03 05:37:21;;;;;;;14.35;11.95;;;;;;;14.84;89.30;98680.50;261398;1093;22800;-76
2021/08/03 05:44:07;;;;;;;12.75;11.35;;;;;;;15.05;89.73;98678.74;262145;1091;22832;-75
2021/08/03 05:57:17;;;;;;;;;;;;;;;;;;;;;
2021/08/03 06:03:38;;;;;;;15.25;10.45;;;;;;;15.91;88.76;98681.48;261947;1090;22812;-74
2021/08/03 06:24:11;;;;;;;9.90;8.90;;;;;;;16.65;88.33;98688.47;262189;1090;22937;-74
2021/08/03 06:30:57;;;;;;;;;;;;;;;;;;;;;
2021/08/03 06:37:36;;;;;;;8.88;7.98;;;;;;;17.03;87.27;98677.50;262351;1089;22805;-75
2021/08/03 06:51:34;;;;;;;6.77;5.60;;;;;;;17.52;85.21;98676.04;262225;1090;22792;-74
2021/08/03 06:57:44;;;;;;;;;;;;;;;;;;;;;
2021/08/03 07:04:14;;;;;;;8.45;6.55;;;;;;;17.95;85.14;98701.83;262553;1090;22681;-81
2021/08/03 07:10:45;;;;;;;7.25;6.55;;;;;;;18.25;86.05;98694.22;262378;1089;23394;-75
2021/08/03 07:16:54;;;;;;;5.70;5.20;;;;;;;18.57;83.66;98705.23;261971;1092;25420;-75
2021/08/03 07:22:01;;;;;;;6.10;5.45;;;;;;;18.83;83.67;98701.32;262378;1090;23170;-76
2021/08/03 07:27:15;;;;;;;5.70;5.03;;;;;;;18.89;82.36;98701.89;262711;1089;23234;-75
2021/08/03 07:39:15;;;;;;;6.15;4.40;;;;;;;19.38;82.60;98695.43;262088;1090;22862;-76
2021/08/03 07:44:35;;;;;;;6.00;3.30;;;;;;;19.65;80.10;98697.26;262367;1090;22785;-75
2021/08/03 07:49:48;;;;;;;3.17;2.73;;;;;;;19.92;80.25;98686.69;262134;1090;22941;-75
2021/08/03 07:55:02;;;;;;;3.70;3.40;;;;;;;19.99;77.92;98689.56;262190;1090;25988;-76
2021/08/03 08:00:14;;;;;;;8.15;4.00;;;;;;;19.92;77.99;98694.84;262085;1089;22978;-75
2021/08/03 08:05:24;;;;;;;2.67;2.47;;;;;;;20.01;78.13;98694.65;262294;1089;22897;-75
2021/08/03 08:10:31;;;;;;;2.13;1.90;;;;;;;20.21;76.70;98689.26;262545;1089;23043;-74
2021/08/03 08:15:42;;;;;;;2.50;1.90;;;;;;;20.10;73.85;98695.23;262069;1090;22816;-74
2021/08/03 08:21:06;;;;;;;2.10;1.93;;;;;;;20.17;74.72;98694.61;262009;1090;22943;-74
2021/08/03 08:26:20;;;;;;;4.40;2.50;;;;;;;20.55;76.18;98695.80;262069;1089;27059;-74
2021/08/03 08:31:46;;;;;;;3.40;2.50;;;;;;;20.94;76.67;98686.89;262475;1090;28699;-73
2021/08/03 08:36:53;;;;;;;2.30;2.10;;;;;;;21.07;74.03;98682.07;263101;1090;22785;-73
2021/08/03 08:42:02;;;;;;;2.60;2.35;;;;;;;21.13;73.91;98688.81;262527;1089;22796;-74
2021/08/03 08:47:26;;;;;;;2.67;2.47;;;;;;;21.43;75.16;98685.44;262819;1090;23069;-73
2021/08/03 08:52:45;;;;;;;2.50;2.30;;;;;;;21.65;73.56;98676.48;262668;1090;22806;-73
2021/08/03 08:58:25;;;;;;;3.05;2.05;;;;;;;21.81;72.60;98681.82;262487;1090;26367;-73
2021/08/03 09:03:37;;;;;;;2.83;2.38;;;;;;;21.97;72.49;98692.56;262531;1090;22812;-75
2021/08/03 09:09:16;;;;;;;2.73;2.53;;;;;;;22.04;69.87;98695.40;262800;1090;22942;-73
2021/08/03 09:14:38;;;;;;;2.45;2.20;;;;;;;22.00;69.95;98689.10;262584;1090;22853;-73
2021/08/03 09:20:23;;;;;;;;;;;;;;;;;;;;;
2021/08/03 09:25:39;;;;;;;4.53;2.38;;;;;;;22.32;67.06;98696.96;262536;1088;22825;-74
2021/08/03 09:30:46;;;;;;;1.85;1.70;;;;;;;22.22;66.14;98683.97;262644;1092;22878;-75
2021/08/03 09:36:13;;;;;;;2.80;1.93;;;;;;;22.37;66.51;98693.95;262247;1093;25836;-74
2021/08/03 09:41:17;;;;;;;3.03;2.70;;;;;;;22.50;67.50;98691.00;262449;1092;22945;-73
2021/08/03 09:46:27;;;;;;;2.23;2.03;;;;;;;22.70;65.21;98684.21;262404;1092;22825;-74
2021/08/03 09:52:12;;;;;;;2.93;2.18;;;;;;;22.63;63.67;98681.40;262355;1092;23537;-74
2021/08/03 09:58:13;;;;;;;;;;;;;;;;;;;;;
2021/08/03 10:04:09;;;;;;;;;;;;;;;23.15;63.85;98672.64;263797;1090;22879;-73
2021/08/03 10:09:15;;;;;;;2.37;2.10;;;;;;;23.20;62.74;98664.11;262496;1090;21461;-74
2021/08/03 10:14:24;;;;;;;2.23;2.03;;;;;;;23.43;61.51;98669.38;262772;1090;22812;-73
2021/08/03 10:19:35;;;;;;;2.47;2.27;;;;;;;23.50;60.93;98676.86;262653;1090;24055;-75
2021/08/03 10:25:10;;;;;;;2.78;2.50;;;;;;;23.47;59.62;98669.42;262491;1089;22819;-75
2021/08/03 10:30:54;;;;;;;3.07;2.33;;;;;;;23.51;59.19;98667.50;263039;1090;22856;-74
2021/08/03 10:36:54;;;;;;;3.67;2.30;;;;;;;24.02;59.99;98655.80;262922;1089;22937;-74
2021/08/03 10:42:17;;;;;;;2.50;2.20;;;;;;;24.23;57.62;98659.80;262644;1090;22889;-75
2021/08/03 10:47:36;;;;;;;2.85;2.50;;;;;;;24.37;55.12;98651.68;263285;1090;23461;-73
2021/08/03 10:52:48;;;;;;;1.90;1.80;;;;;;;24.40;53.70;98633.68;262560;1090;22838;-73
2021/08/03 10:58:13;;;;;;;2.75;1.70;;;;;;;24.52;53.61;98638.81;262477;1089;22779;-72
2021/08/03 11:03:35;;;;;;;2.70;2.13;;;;;;;24.69;51.86;98634.59;262501;1089;22812;-73
2021/08/03 11:08:48;;;;;;;2.20;1.60;;;;;;;24.94;51.81;98637.42;262843;1088;22849;-73
2021/08/03 11:14:06;;;;;;;1.70;1.60;;;;;;;25.06;50.95;98643.70;262588;1090;23062;-74
2021/08/03 11:19:28;;;;;;;3.23;2.60;;;;;;;24.62;50.42;98642.02;262598;1090;23001;-73
2021/08/03 11:24:37;;;;;;;2.43;2.00;;;;;;;24.15;51.00;98644.51;262542;1088;23978;-73
2021/08/03 11:29:44;;;;;;;1.83;1.73;;;;;;;23.72;51.54;98628.60;263899;1090;22755;-73
2021/08/03 11:34:56;;;;;;;1.90;1.70;;;;;;;23.48;53.17;98621.80;262580;1089;22801;-73
2021/08/03 11:40:03;;;;;;;2.43;2.23;;;;;;;23.31;54.04;98618.53;262479;1090;22784;-73
2021/08/03 11:45:10;;;;;;;4.73;2.73;;;;;;;23.15;54.77;98626.19;262505;1088;25877;-73
2021/08/03 11:50:29;;;;;;;2.00;1.90;;;;;;;22.86;56.86;98631.33;262478;1090;23025;-73
2021/08/03 11:55:35;;;;;;;5.65;4.30;;;;;;;22.39;58.47;98619.90;262597;1090;22830;-74
2021/08/03 12:00:39;;;;;;;3.13;2.67;;;;;;;21.98;60.47;98612.34;262870;1090;22779;-74
2021/08/03 12:06:23;;;;;;;5.80;1.85;;;;;;;21.90;61.33;98605.20;262576;1090;27355;-74
2021/08/03 12:12:06;;;;;;;1.83;1.53;;;;;;;21.92;61.16;98593.92;262505;1090;23052;-75
2021/08/03 12:18:05;;;;;;;3.13;1.60;;;;;;;22.08;62.37;98588.28;262613;1090;22810;-74
2021/08/03 12:23:43;;;;;;;5.48;3.80;;;;;;;22.61;61.86;98568.27;262788;1090;22869;-74
2021/08/03 12:28:49;;;;;;;1.88;1.40;;;;;;;22.98;60.99;98573.71;262369;1088;22878;-74
2021/08/03 12:34:19;;;;;;;1.00;1.00;;;;;;;23.15;58.70;98555.16;262148;1089;22838;-74
2021/08/03 12:39:27;;;;;;;1.10;1.10;;;;;;;23.34;58.47;98556.88;262223;1090;23597;-73
2021/08/03 12:44:40;;;;;;;1.85;1.08;;;;;;;23.47;56.36;98549.15;262113;1089;22791;-73
2021/08/03 12:50:21;;;;;;;2.20;1.68;;;;;;;23.63;56.12;98535.98;262014;1090;27682;-73
2021/08/03 12:55:56;;;;;;;2.13;1.65;;;;;;;23.44;54.93;98534.29;262036;1090;22809;-72
2021/08/03 13:01:15;;;;;;;1.38;1.25;;;;;;;23.34;55.49;98541.25;262092;1090;22796;-74
2021/08/03 13:07:13;;;;;;;2.13;1.83;;;;;;;23.63;56.02;98529.70;262140;1090;22812;-73
2021/08/03 13:12:26;;;;;;;2.70;2.50;;;;;;;23.78;56.01;98530.58;262102;1089;23241;-74
2021/08/03 13:17:33;;;;;;;2.40;2.20;;;;;;;23.79;53.42;98523.95;262012;1090;25852;-73
2021/08/03 13:22:37;;;;;;;1.70;1.60;;;;;;;23.89;55.04;98515.03;262179;1089;22867;-75
2021/08/03 13:27:43;;;;;;;2.98;2.53;;;;;;;24.05;54.06;98501.81;262344;1090;22876;-74
2021/08/03 13:32:58;;;;;;;2.47;1.80;;;;;;;24.17;52.69;98497.16;261983;1090;22779;-74
2021/08/03 13:38:22;;;;;;;1.78;1.68;;;;;;;24.41;51.82;98490.97;262117;1090;22785;-74
2021/08/03 13:49:46;;;;;;;1.50;1.40;;;;;;;25.04;50.62;98487.91;262422;1089;22974;-73
2021/08/03 13:55:46;;;;;;;2.40;2.20;;;;;;;25.29;49.00;98484.34;262123;1089;22968;-73
2021/08/03 14:00:50;;;;;;;1.40;1.30;;;;;;;25.37;48.52;98472.21;262471;1090;22891;-71
2021/08/03 14:06:07;;;;;;;2.98;2.75;;;;;;;25.52;48.19;98461.20;262391;1089;22829;-72
2021/08/03 14:11:52;;;;;;;4.28;3.85;;;;;;;25.74;47.72;98459.16;262187;1088;27074;-72
2021/08/03 14:18:03;;;;;;;;;;;;;;;;;;;;;
2021/08/03 14:30:24;;;;;;;2.30;2.10;;;;;;;24.88;46.72;98449.94;262170;1090;22783;-72
2021/08/03 14:36:09;;;;;;;;;;;;;;;;;;;;;
2021/08/03 14:42:15;;;;;;;1.53;1.43;;;;;;;24.13;49.35;98439.67;261798;1090;22809;-73
2021/08/03 14:47:50;;;;;;;1.85;1.73;;;;;;;24.12;50.47;98440.06;261793;1090;22935;-72
2021/08/03 14:52:56;;;;;;;1.80;1.70;;;;;;;24.23;51.07;98435.39;261809;1090;22829;-72
2021/08/03 14:58:23;;;;;;;4.98;4.50;;;;;;;24.35;51.17;98432.30;261708;1090;22779;-72
2021/08/03 15:03:43;;;;;;;1.80;1.70;;;;;;;24.43;51.66;98444.05;261829;1090;22822;-73
2021/08/03 15:08:50;;;;;;;1.70;1.60;;;;;;;24.54;51.39;98442.09;261749;1090;23565;-72
2021/08/03 15:20:48;;;;;;;2.18;1.40;;;;;;;24.57;50.70;98438.57;261766;1090;22830;-72
2021/08/03 15:26:05;;;;;;;1.23;1.13;;;;;;;24.60;50.55;98447.97;261784;1089;22812;-73
2021/08/03 15:31:09;;;;;;;1.90;1.48;;;;;;;24.66;50.29;98449.16;261798;1090;22787;-75
2021/08/03 15:36:23;;;;;;;2.80;2.50;;;;;;;24.69;49.68;98433.91;261692;1089;24359;-73
2021/08/03 15:41:27;;;;;;;1.20;1.20;;;;;;;24.81;49.72;98435.48;261888;1090;22806;-73
2021/08/03 15:46:31;;;;;;;1.60;1.50;;;;;;;25.03;49.73;98437.02;261965;1090;22911;-73
2021/08/03 15:51:39;;;;;;;1.60;1.00;;;;;;;25.28;49.17;98431.48;261837;1090;27844;-73
2021/08/03 15:56:46;;;;;;;1.60;1.25;;;;;;;25.34;48.12;98431.89;261898;1089;22895;-73
2021/08/03 16:01:57;;;;;;;1.13;1.13;;;;;;;25.26;48.03;98424.83;261801;1090;23532;-73
2021/08/03 16:07:01;;;;;;;1.98;1.43;;;;;;;25.07;48.23;98421.36;261818;1090;24365;-74
2021/08/03 16:12:05;;;;;;;1.30;1.20;;;;;;;24.79;48.75;98416.67;261782;1090;27159;-73
2021/08/03 16:17:14;;;;;;;1.40;1.30;;;;;;;24.38;47.96;98417.82;261894;1090;22798;-73
2021/08/03 16:22:20;;;;;;;1.53;1.43;;;;;;;24.05;48.84;98414.27;261954;1090;28594;-72
2021/08/03 16:27:24;;;;;;;1.30;1.20;;;;;;;23.83;49.62;98415.36;261867;1090;22937;-73
2021/08/03 16:32:31;;;;;;;1.30;1.20;;;;;;;23.69;50.06;98425.06;261723;1089;22812;-73
2021/08/03 16:37:37;;;;;;;1.65;1.40;;;;;;;23.62;50.55;98418.80;262051;1090;22797;-72
2021/08/03 16:42:44;;;;;;;1.15;1.15;;;;;;;23.53;51.16;98416.40;262436;1089;22785;-73
2021/08/03 16:47:49;;;;;;;5.95;1.60;;;;;;;23.42;51.41;98410.91;261918;1092;22975;-72
2021/08/03 16:53:07;;;;;;;1.67;1.53;;;;;;;23.28;51.64;98419.81;261837;1088;22870;-73
2021/08/03 16:58:13;;;;;;;1.60;1.50;;;;;;;23.13;51.86;98418.94;261747;1089;22809;-72
2021/08/03 17:03:17;;;;;;;1.68;1.58;;;;;;;23.00;52.61;98418.45;261736;1090;22806;-73
2021/08/03 17:08:51;;;;;;;1.97;1.70;;;;;;;22.90;53.13;98419.14;261820;1090;22937;-72
2021/08/03 17:14:22;;;;;;;2.55;1.35;;;;;;;22.81;54.19;98427.67;261802;1093;25976;-72
2021/08/03 17:19:36;;;;;;;1.60;1.50;;;;;;;22.65;54.38;98430.67;261849;1090;22815;-73
2021/08/03 17:24:42;;;;;;;2.33;1.53;;;;;;;22.55;54.83;98432.16;261893;1089;22783;-72
2021/08/03 17:29:49;;;;;;;1.40;1.30;;;;;;;22.43;55.28;98434.36;261860;1090;24071;-73
2021/08/03 17:34:53;;;;;;;2.53;1.50;;;;;;;22.29;55.50;98435.78;261974;1090;24311;-73
2021/08/03 17:39:57;;;;;;;1.43;1.20;;;;;;;22.18;56.54;98429.44;261879;1093;24457;-73
2021/08/03 17:45:04;;;;;;;2.55;1.50;;;;;;;22.07;57.00;98437.50;261964;1090;24355;-73
2021/08/03 17:50:11;;;;;;;1.70;1.57;;;;;;;21.96;57.41;98431.92;262004;1089;22777;-71
2021/08/03 17:55:16;;;;;;;2.68;1.45;;;;;;;21.87;57.48;98429.50;261951;1090;22783;-73
2021/08/03 18:00:24;;;;;;;1.50;1.40;;;;;;;21.77;57.68;98432.09;261853;1089;22795;-73
2021/08/03 18:05:29;;;;;;;1.65;1.55;;;;;;;21.67;57.95;98434.34;261771;1090;22875;-72
2021/08/03 18:10:35;;;;;;;1.40;1.30;;;;;;;21.59;58.82;98431.88;261742;1090;25877;-72
2021/08/03 18:15:45;;;;;;;2.90;1.80;;;;;;;21.50;59.43;98426.68;261813;1090;24345;-73
2021/08/03 18:21:42;;;;;;;;;;;;;;;;;;;;;
2021/08/03 18:28:44;;;;;;;;;;;;;;;;;;;;;
2021/08/03 18:35:09;;;;;;;3.10;2.10;;;;;;;21.13;61.73;98440.98;261602;1090;22855;-72
2021/08/03 18:40:22;;;;;;;2.55;2.10;;;;;;;21.00;62.57;98449.36;261735;1090;22870;-73
2021/08/03 18:45:37;;;;;;;2.20;2.00;;;;;;;20.91;62.72;98456.20;261869;1090;22795;-72
2021/08/03 18:50:49;;;;;;;2.00;1.80;;;;;;;20.81;63.23;98457.61;261742;1090;22803;-74
2021/08/03 18:56:11;;;;;;;2.10;1.87;;;;;;;20.71;63.48;98455.51;261760;1088;22883;-72
2021/08/03 19:30:14;;;;;;;4.27;3.40;;;;;;;19.93;65.45;98457.19;262101;1092;22943;-72
2021/08/03 19:36:16;;;;;;;;;;;;;;;;;;;;;
2021/08/03 19:49:09;;;;;;;5.45;3.30;;;;;;;19.49;67.28;98463.65;262198;1090;22958;-73
2021/08/03 19:54:38;;;;;;;5.80;3.60;;;;;;;19.34;67.84;98469.14;262119;1090;22799;-72
2021/08/03 19:59:45;;;;;;;6.00;4.20;;;;;;;19.24;68.38;98471.25;262109;1089;22971;-71
2021/08/03 20:04:49;;;;;;;4.80;3.20;;;;;;;19.07;68.28;98477.04;262035;1090;22783;-72
2021/08/03 20:10:02;;;;;;;7.90;4.20;;;;;;;18.90;69.43;98480.91;261975;1090;22787;-73
2021/08/03 20:15:09;;;;;;;8.50;4.83;;;;;;;18.78;69.74;98487.20;262048;1090;22802;-72
2021/08/03 20:20:20;;;;;;;11.15;5.00;;;;;;;18.68;69.96;98493.13;262111;1090;22870;-73
2021/08/03 20:25:25;;;;;;;6.20;4.55;;;;;;;18.58;70.52;98497.95;262011;1090;22835;-73
2021/08/03 20:30:31;;;;;;;7.65;5.45;;;;;;;18.52;70.51;98506.68;261911;1090;23033;-72
2021/08/03 20:41:13;;;;;;;6.85;5.20;;;;;;;18.35;70.16;98513.22;261842;1089;22799;-72
2021/08/03 20:46:17;;;;;;;8.80;6.10;;;;;;;18.17;70.32;98521.63;261886;1089;22944;-73
2021/08/03 20:51:22;;;;;;;7.55;6.05;;;;;;;18.03;71.43;98524.73;261836;1090;22782;-72
2021/08/03 20:56:25;;;;;;;9.20;6.10;;;;;;;17.96;71.40;98508.27;261924;1088;22821;-72
2021/08/03 21:01:42;;;;;;;7.87;5.87;;;;;;;17.97;72.21;98515.28;261868;1090;24365;-71
2021/08/03 21:06:47;;;;;;;8.05;6.20;;;;;;;18.08;72.74;98504.75;261867;1089;22831;-72
2021/08/03 21:11:51;;;;;;;10.25;6.60;;;;;;;18.18;72.75;98503.47;261842;1090;22953;-72
2021/08/03 21:16:55;;;;;;;8.15;6.85;;;;;;;18.20;72.62;98496.56;261770;1089;22811;-71
2021/08/03 21:22:27;;;;;;;9.70;6.65;;;;;;;18.22;73.33;98498.93;261777;1090;22812;-72
2021/08/03 21:28:28;;;;;;;8.30;5.90;;;;;;;18.24;73.05;98486.61;261817;1090;23001;-72
2021/08/03 21:34:15;;;;;;;;;;;;;;;;;;;;;
2021/08/03 21:39:46;;;;;;;7.50;5.80;;;;;;;18.18;73.14;98479.84;261792;1090;25877;-73
2021/08/03 21:45:08;;;;;;;8.75;6.05;;;;;;;18.20;73.61;98469.46;261828;1090;22937;-72
2021/08/03 21:50:31;;;;;;;7.70;6.15;;;;;;;18.19;73.44;98453.52;261848;1090;22816;-72
2021/08/03 21:55:35;;;;;;;9.15;6.30;;;;;;;18.04;73.41;98446.94;261840;1090;22795;-73
2021/08/03 22:00:49;;;;;;;8.25;5.30;;;;;;;17.93;73.64;98439.29;261707;1090;22854;-72
2021/08/03 22:06:34;;;;;;;7.93;5.70;;;;;;;17.89;73.24;98438.41;261795;1090;23342;-72
2021/08/03 22:12:29;;;;;;;8.43;5.63;;;;;;;17.75;73.36;98448.82;261774;1089;22939;-71
2021/08/03 22:17:34;;;;;;;8.65;6.30;;;;;;;17.58;73.12;98449.89;261965;1090;22863;-71
2021/08/03 22:22:52;;;;;;;9.15;5.95;;;;;;;17.51;73.64;98450.47;261851;1090;23007;-73
2021/08/03 22:28:24;;;;;;;7.50;5.70;;;;;;;17.44;73.74;98447.55;261044;1089;22760;-72
2021/08/03 22:33:28;;;;;;;7.20;5.30;;;;;;;17.39;73.78;98445.07;261844;1089;22869;-73
2021/08/03 22:38:32;;;;;;;5.85;4.90;;;;;;;17.36;73.68;98443.86;261819;1090;27561;-72
2021/08/03 22:43:36;;;;;;;6.45;5.00;;;;;;;17.33;73.88;98441.03;261866;1090;22763;-73
2021/08/03 22:48:39;;;;;;;6.45;5.00;;;;;;;17.25;73.53;98442.73;261814;1090;22869;-72
2021/08/03 22:53:42;;;;;;;9.45;5.20;;;;;;;17.17;73.80;98446.38;261857;1090;22823;-72
2021/08/03 22:58:46;;;;;;;7.15;5.25;;;;;;;17.06;74.31;98432.50;262012;1090;23413;-71
2021/08/03 23:03:50;;;;;;;7.50;4.75;;;;;;;17.03;74.61;98433.97;261864;1090;24339;-71
2021/08/03 23:08:53;;;;;;;7.20;5.35;;;;;;;16.96;75.11;98424.83;261805;1090;22830;-74
2021/08/03 23:13:58;;;;;;;9.50;5.35;;;;;;;16.93;75.30;98429.02;261826;1090;22791;-73
2021/08/03 23:19:04;;;;;;;5.67;4.43;;;;;;;16.94;76.14;98484.69;262023;1091;22939;-72
2021/08/03 23:24:08;;;;;;;9.30;6.70;;;;;;;16.87;76.14;98489.84;262330;1090;22809;-72
2021/08/03 23:29:11;;;;;;;9.60;6.50;;;;;;;16.83;76.23;98486.23;262304;1090;22907;-72
2021/08/03 23:34:15;;;;;;;8.95;5.30;;;;;;;16.80;76.46;98505.84;262218;1090;22876;-73
2021/08/03 23:39:19;;;;;;;7.10;5.05;;;;;;;16.71;76.88;98497.83;262047;1090;22809;-73
2021/08/03 23:44:25;;;;;;;6.50;4.93;;;;;;;16.62;77.41;98503.34;261862;1090;22877;-75
2021/08/03 23:49:28;;;;;;;7.30;5.10;;;;;;;16.52;77.21;98493.75;261843;1089;26072;-73
2021/08/03 23:54:39;;;;;;;5.75;4.70;;;;;;;16.54;77.59;98496.89;261960;1090;22896;-74
